Etusivu
METAR-TAF:

METAR-TAF

Lentoasemat :

Tunis, Tunisia

Leveyspiiri: 36-50N, Pituuspiiri: 010-14E, korkeus merenpinnasta: 3 m

Tämänhetkinen sää

Tämä raportti tehtiin 40 minuuttia sitten, kello 14.00 UTC
Tuuli 15 kn pohjoisesta
Lämpötila 28°C
Kosteus 48%
Ilmanpaine 1014 hPa
Näkyvyys 10 km tai enemmän
Muutamia pilviä 2300 ft:n korkeudessa

METAR: DTTA 121400Z 36015KT 9999 FEW023 28/16 Q1014

Aika: 15:40 (14:40 UTC)

Sääennuste

Tämä raportti tehtiin 3 tuntia ja 40 minuuttia sitten, kello 11.00 UTC
Ennuste voimassa 12. päivästä klo 12 UTC - 13. päivään klo 12 UTC
Tuuli 15 kn pohjoisesta
Näkyvyys 10 km tai enemmän
Muutamia pilviä 2300 ft:n korkeudessa
Tulossa
12. päivästä klo 19 UTC - 12. päivään klo 21 UTC
Tuuli 10 kn lännestä/luoteesta

TAF: DTTA 121100Z 1212/1312 36015KT 9999 FEW023 BECMG 1219/1221 30010KT

Säähavainnot ja -ennusteet yli 4000 lentoasemalta (METAR- ja TAF-raportit).

Käytössä olevat sääasemat on merkitty karttaan keltaisilla ja punaisilla pisteillä.

Aseta hiiri pisteen päälle nähdäksesi sääaseman nimen.

Klikkaa sitten nähdäksesi säähavainnot ja -ennusteet.

Kartan vaihtaminen: klikkaa mustalla rastilla varustettuja vihreitä pisteitä, niin voit zoomata sisään; viivalla varustettua vihreää pistettä, niin voit zoomata ulos tai vihreitä nuolia, niin pääset viereisille kartoille.


METAR-TAF: